sensor_id;sensor_type;location;lat;lon;timestamp;temperature;humidity
18658;DHT22;9458;50.942;5.074;2024-03-06T00:05:56;8.50;99.90
18658;DHT22;9458;50.942;5.074;2024-03-06T00:10:50;8.50;99.90
18658;DHT22;9458;50.942;5.074;2024-03-06T00:13:18;8.50;99.90
18658;DHT22;9458;50.942;5.074;2024-03-06T00:15:46;8.50;99.90
18658;DHT22;9458;50.942;5.074;2024-03-06T00:18:13;8.40;99.90
18658;DHT22;9458;50.942;5.074;2024-03-06T00:20:40;8.40;99.90
18658;DHT22;9458;50.942;5.074;2024-03-06T00:23:08;8.30;99.90
18658;DHT22;9458;50.942;5.074;2024-03-06T00:25:35;8.20;99.90
18658;DHT22;9458;50.942;5.074;2024-03-06T00:28:02;8.00;99.90
18658;DHT22;9458;50.942;5.074;2024-03-06T00:30:30;8.00;99.90
18658;DHT22;9458;50.942;5.074;2024-03-06T00:32:57;8.00;99.90
18658;DHT22;9458;50.942;5.074;2024-03-06T00:37:52;7.80;99.90
18658;DHT22;9458;50.942;5.074;2024-03-06T00:40:20;7.90;99.90
18658;DHT22;9458;50.942;5.074;2024-03-06T00:42:47;7.90;99.90
18658;DHT22;9458;50.942;5.074;2024-03-06T00:45:14;7.90;99.90
18658;DHT22;9458;50.942;5.074;2024-03-06T00:47:42;7.80;99.90
18658;DHT22;9458;50.942;5.074;2024-03-06T00:50:09;7.70;99.90
18658;DHT22;9458;50.942;5.074;2024-03-06T00:52:36;7.70;99.90
18658;DHT22;9458;50.942;5.074;2024-03-06T00:55:04;7.70;99.90
18658;DHT22;9458;50.942;5.074;2024-03-06T00:57:32;7.70;99.90
18658;DHT22;9458;50.942;5.074;2024-03-06T00:59:59;7.60;99.90
18658;DHT22;9458;50.942;5.074;2024-03-06T01:02:26;7.60;99.90
18658;DHT22;9458;50.942;5.074;2024-03-06T01:04:54;7.40;99.90
18658;DHT22;9458;50.942;5.074;2024-03-06T01:07:22;7.40;99.90
18658;DHT22;9458;50.942;5.074;2024-03-06T01:09:49;7.30;99.90
18658;DHT22;9458;50.942;5.074;2024-03-06T01:12:16;7.30;99.90
18658;DHT22;9458;50.942;5.074;2024-03-06T01:14:44;7.10;99.90
18658;DHT22;9458;50.942;5.074;2024-03-06T01:17:11;7.00;99.90
18658;DHT22;9458;50.942;5.074;2024-03-06T01:19:38;7.10;99.90
18658;DHT22;9458;50.942;5.074;2024-03-06T01:22:06;7.20;99.90
18658;DHT22;9458;50.942;5.074;2024-03-06T01:24:33;7.20;99.90
18658;DHT22;9458;50.942;5.074;2024-03-06T01:27:03;7.20;99.90
18658;DHT22;9458;50.942;5.074;2024-03-06T01:29:30;7.20;99.90
18658;DHT22;9458;50.942;5.074;2024-03-06T01:31:57;7.20;99.90
18658;DHT22;9458;50.942;5.074;2024-03-06T01:34:24;7.20;99.90
18658;DHT22;9458;50.942;5.074;2024-03-06T01:36:51;7.10;99.90
18658;DHT22;9458;50.942;5.074;2024-03-06T01:39:20;7.00;99.90
18658;DHT22;9458;50.942;5.074;2024-03-06T01:41:47;6.80;99.90
18658;DHT22;9458;50.942;5.074;2024-03-06T01:44:14;6.60;99.90
18658;DHT22;9458;50.942;5.074;2024-03-06T01:46:42;6.60;99.90
18658;DHT22;9458;50.942;5.074;2024-03-06T01:49:10;6.50;99.90
18658;DHT22;9458;50.942;5.074;2024-03-06T01:51:38;6.40;99.90
18658;DHT22;9458;50.942;5.074;2024-03-06T01:54:08;6.40;99.90
18658;DHT22;9458;50.942;5.074;2024-03-06T01:56:39;5.60;99.90
18658;DHT22;9458;50.942;5.074;2024-03-06T01:59:07;6.70;99.90
18658;DHT22;9458;50.942;5.074;2024-03-06T02:01:35;6.60;99.90
18658;DHT22;9458;50.942;5.074;2024-03-06T02:04:03;6.60;99.90
18658;DHT22;9458;50.942;5.074;2024-03-06T02:06:31;6.40;99.90
18658;DHT22;9458;50.942;5.074;2024-03-06T02:08:58;6.40;99.90
18658;DHT22;9458;50.942;5.074;2024-03-06T02:13:55;6.50;99.90
18658;DHT22;9458;50.942;5.074;2024-03-06T02:16:22;6.60;99.90
18658;DHT22;9458;50.942;5.074;2024-03-06T02:18:52;6.50;99.90
18658;DHT22;9458;50.942;5.074;2024-03-06T02:21:21;6.00;99.90
18658;DHT22;9458;50.942;5.074;2024-03-06T02:23:49;6.00;99.90
18658;DHT22;9458;50.942;5.074;2024-03-06T02:26:17;6.10;99.90
18658;DHT22;9458;50.942;5.074;2024-03-06T02:28:47;6.10;99.90
18658;DHT22;9458;50.942;5.074;2024-03-06T02:31:15;6.50;99.90
18658;DHT22;9458;50.942;5.074;2024-03-06T02:33:43;6.20;99.90
18658;DHT22;9458;50.942;5.074;2024-03-06T02:36:10;5.20;99.90
18658;DHT22;9458;50.942;5.074;2024-03-06T02:38:38;6.00;99.90
18658;DHT22;9458;50.942;5.074;2024-03-06T02:41:06;5.90;99.90
18658;DHT22;9458;50.942;5.074;2024-03-06T02:43:33;6.00;99.90
18658;DHT22;9458;50.942;5.074;2024-03-06T02:46:00;6.00;99.90
18658;DHT22;9458;50.942;5.074;2024-03-06T02:48:28;6.00;99.90
18658;DHT22;9458;50.942;5.074;2024-03-06T02:50:57;6.00;99.90
18658;DHT22;9458;50.942;5.074;2024-03-06T02:53:24;5.90;99.90
18658;DHT22;9458;50.942;5.074;2024-03-06T02:55:53;5.90;99.90
18658;DHT22;9458;50.942;5.074;2024-03-06T02:58:20;5.90;99.90
18658;DHT22;9458;50.942;5.074;2024-03-06T03:00:47;6.00;99.90
18658;DHT22;9458;50.942;5.074;2024-03-06T03:03:14;6.00;99.90
18658;DHT22;9458;50.942;5.074;2024-03-06T03:05:42;5.80;99.90
18658;DHT22;9458;50.942;5.074;2024-03-06T03:08:09;5.50;99.90
18658;DHT22;9458;50.942;5.074;2024-03-06T03:10:36;5.80;99.90
18658;DHT22;9458;50.942;5.074;2024-03-06T03:13:04;5.90;99.90
18658;DHT22;9458;50.942;5.074;2024-03-06T03:15:31;5.90;99.90
18658;DHT22;9458;50.942;5.074;2024-03-06T03:17:58;5.90;99.90
18658;DHT22;9458;50.942;5.074;2024-03-06T03:20:26;5.80;99.90
18658;DHT22;9458;50.942;5.074;2024-03-06T03:22:53;5.50;99.90
18658;DHT22;9458;50.942;5.074;2024-03-06T03:25:20;5.70;99.90
18658;DHT22;9458;50.942;5.074;2024-03-06T03:27:47;5.70;99.90
18658;DHT22;9458;50.942;5.074;2024-03-06T03:30:17;5.70;99.90
18658;DHT22;9458;50.942;5.074;2024-03-06T03:32:47;5.70;99.90
18658;DHT22;9458;50.942;5.074;2024-03-06T03:35:14;5.50;99.90
18658;DHT22;9458;50.942;5.074;2024-03-06T03:37:42;5.40;99.90
18658;DHT22;9458;50.942;5.074;2024-03-06T03:40:10;5.40;99.90
18658;DHT22;9458;50.942;5.074;2024-03-06T03:42:38;5.50;99.90
18658;DHT22;9458;50.942;5.074;2024-03-06T03:45:05;5.40;99.90
18658;DHT22;9458;50.942;5.074;2024-03-06T03:47:34;4.60;99.90
18658;DHT22;9458;50.942;5.074;2024-03-06T03:50:01;5.30;99.90
18658;DHT22;9458;50.942;5.074;2024-03-06T03:52:29;5.20;99.90
18658;DHT22;9458;50.942;5.074;2024-03-06T03:54:56;5.00;99.90
18658;DHT22;9458;50.942;5.074;2024-03-06T03:57:23;5.10;99.90
18658;DHT22;9458;50.942;5.074;2024-03-06T03:59:50;5.20;99.90
18658;DHT22;9458;50.942;5.074;2024-03-06T04:02:18;5.10;99.90
18658;DHT22;9458;50.942;5.074;2024-03-06T04:04:46;5.00;99.90
18658;DHT22;9458;50.942;5.074;2024-03-06T04:07:13;4.80;99.90
18658;DHT22;9458;50.942;5.074;2024-03-06T04:09:41;4.90;99.90
18658;DHT22;9458;50.942;5.074;2024-03-06T04:12:08;5.00;99.90
18658;DHT22;9458;50.942;5.074;2024-03-06T04:14:36;5.00;99.90
18658;DHT22;9458;50.942;5.074;2024-03-06T04:17:03;5.00;99.90
18658;DHT22;9458;50.942;5.074;2024-03-06T04:19:31;4.70;99.90
18658;DHT22;9458;50.942;5.074;2024-03-06T04:22:00;4.60;99.90
18658;DHT22;9458;50.942;5.074;2024-03-06T04:24:28;4.70;99.90
18658;DHT22;9458;50.942;5.074;2024-03-06T04:26:55;4.90;99.90
18658;DHT22;9458;50.942;5.074;2024-03-06T04:29:22;5.00;99.90
18658;DHT22;9458;50.942;5.074;2024-03-06T04:31:49;5.10;99.90
18658;DHT22;9458;50.942;5.074;2024-03-06T04:34:16;4.90;99.90
18658;DHT22;9458;50.942;5.074;2024-03-06T04:36:43;4.90;99.90
18658;DHT22;9458;50.942;5.074;2024-03-06T04:39:11;5.00;99.90
18658;DHT22;9458;50.942;5.074;2024-03-06T04:41:38;4.90;99.90
18658;DHT22;9458;50.942;5.074;2024-03-06T04:44:05;5.00;99.90
18658;DHT22;9458;50.942;5.074;2024-03-06T04:46:32;5.00;99.90
18658;DHT22;9458;50.942;5.074;2024-03-06T04:48:59;4.80;99.90
18658;DHT22;9458;50.942;5.074;2024-03-06T04:51:26;4.60;99.90
18658;DHT22;9458;50.942;5.074;2024-03-06T04:53:53;4.60;99.90
18658;DHT22;9458;50.942;5.074;2024-03-06T04:56:22;4.60;99.90
18658;DHT22;9458;50.942;5.074;2024-03-06T04:58:49;4.60;99.90
18658;DHT22;9458;50.942;5.074;2024-03-06T05:01:17;4.70;99.90
18658;DHT22;9458;50.942;5.074;2024-03-06T05:03:44;4.50;99.90
18658;DHT22;9458;50.942;5.074;2024-03-06T05:06:11;4.50;99.90
18658;DHT22;9458;50.942;5.074;2024-03-06T05:08:38;4.50;99.90
18658;DHT22;9458;50.942;5.074;2024-03-06T05:11:05;4.50;99.90
18658;DHT22;9458;50.942;5.074;2024-03-06T05:13:34;4.60;99.90
18658;DHT22;9458;50.942;5.074;2024-03-06T05:16:01;4.60;99.90
18658;DHT22;9458;50.942;5.074;2024-03-06T05:18:29;4.60;99.90
18658;DHT22;9458;50.942;5.074;2024-03-06T05:20:56;4.50;99.90
18658;DHT22;9458;50.942;5.074;2024-03-06T05:23:23;4.40;99.90
18658;DHT22;9458;50.942;5.074;2024-03-06T05:25:50;4.50;99.90
18658;DHT22;9458;50.942;5.074;2024-03-06T05:28:17;4.60;99.90
18658;DHT22;9458;50.942;5.074;2024-03-06T05:30:46;4.50;99.90
18658;DHT22;9458;50.942;5.074;2024-03-06T05:33:13;4.60;99.90
18658;DHT22;9458;50.942;5.074;2024-03-06T05:35:40;4.50;99.90
18658;DHT22;9458;50.942;5.074;2024-03-06T05:38:08;4.30;99.90
18658;DHT22;9458;50.942;5.074;2024-03-06T05:40:35;4.40;99.90
18658;DHT22;9458;50.942;5.074;2024-03-06T05:43:05;4.50;99.90
18658;DHT22;9458;50.942;5.074;2024-03-06T05:45:32;4.60;99.90
18658;DHT22;9458;50.942;5.074;2024-03-06T05:48:00;4.40;99.90
18658;DHT22;9458;50.942;5.074;2024-03-06T05:50:29;4.30;99.90
18658;DHT22;9458;50.942;5.074;2024-03-06T05:52:57;4.10;99.90
18658;DHT22;9458;50.942;5.074;2024-03-06T05:55:25;4.20;99.90
18658;DHT22;9458;50.942;5.074;2024-03-06T05:57:52;4.30;99.90
18658;DHT22;9458;50.942;5.074;2024-03-06T06:00:20;4.30;99.90
18658;DHT22;9458;50.942;5.074;2024-03-06T06:02:47;5.50;99.90
18658;DHT22;9458;50.942;5.074;2024-03-06T06:05:16;4.30;99.90
18658;DHT22;9458;50.942;5.074;2024-03-06T06:07:45;4.40;99.90
18658;DHT22;9458;50.942;5.074;2024-03-06T06:10:13;4.50;99.90
18658;DHT22;9458;50.942;5.074;2024-03-06T06:12:40;4.40;99.90
18658;DHT22;9458;50.942;5.074;2024-03-06T06:15:08;4.40;99.90
18658;DHT22;9458;50.942;5.074;2024-03-06T06:17:36;4.40;99.90
18658;DHT22;9458;50.942;5.074;2024-03-06T06:20:06;4.40;99.90
18658;DHT22;9458;50.942;5.074;2024-03-06T06:22:41;4.40;99.90
18658;DHT22;9458;50.942;5.074;2024-03-06T06:25:08;4.50;99.90
18658;DHT22;9458;50.942;5.074;2024-03-06T06:27:35;4.50;99.90
18658;DHT22;9458;50.942;5.074;2024-03-06T06:30:03;4.70;99.90
18658;DHT22;9458;50.942;5.074;2024-03-06T06:32:31;4.70;99.90
18658;DHT22;9458;50.942;5.074;2024-03-06T06:34:59;4.80;99.90
18658;DHT22;9458;50.942;5.074;2024-03-06T06:37:26;4.90;99.90
18658;DHT22;9458;50.942;5.074;2024-03-06T06:39:54;3.80;99.90
18658;DHT22;9458;50.942;5.074;2024-03-06T06:42:23;4.90;99.90
18658;DHT22;9458;50.942;5.074;2024-03-06T06:44:50;4.70;99.90
18658;DHT22;9458;50.942;5.074;2024-03-06T06:47:17;4.50;99.90
18658;DHT22;9458;50.942;5.074;2024-03-06T06:49:44;4.20;99.90
18658;DHT22;9458;50.942;5.074;2024-03-06T06:52:11;5.00;99.90
18658;DHT22;9458;50.942;5.074;2024-03-06T06:54:38;5.20;99.90
18658;DHT22;9458;50.942;5.074;2024-03-06T06:57:07;5.90;99.90
18658;DHT22;9458;50.942;5.074;2024-03-06T06:59:35;7.10;99.90
18658;DHT22;9458;50.942;5.074;2024-03-06T07:02:02;8.00;99.90
18658;DHT22;9458;50.942;5.074;2024-03-06T07:04:30;8.50;99.90
18658;DHT22;9458;50.942;5.074;2024-03-06T07:06:57;8.80;99.90
18658;DHT22;9458;50.942;5.074;2024-03-06T07:09:24;9.60;99.90
18658;DHT22;9458;50.942;5.074;2024-03-06T07:11:55;10.10;99.90
18658;DHT22;9458;50.942;5.074;2024-03-06T07:14:24;11.10;99.90
18658;DHT22;9458;50.942;5.074;2024-03-06T07:16:51;11.50;99.90
18658;DHT22;9458;50.942;5.074;2024-03-06T07:19:18;10.90;99.90
18658;DHT22;9458;50.942;5.074;2024-03-06T07:21:45;12.60;99.90
18658;DHT22;9458;50.942;5.074;2024-03-06T07:24:13;13.00;99.90
18658;DHT22;9458;50.942;5.074;2024-03-06T07:26:40;13.60;99.90
18658;DHT22;9458;50.942;5.074;2024-03-06T07:29:07;14.10;99.90
18658;DHT22;9458;50.942;5.074;2024-03-06T07:31:42;14.60;99.90
18658;DHT22;9458;50.942;5.074;2024-03-06T07:34:09;14.80;99.90
18658;DHT22;9458;50.942;5.074;2024-03-06T07:36:36;15.10;99.90
18658;DHT22;9458;50.942;5.074;2024-03-06T07:39:04;15.20;99.90
18658;DHT22;9458;50.942;5.074;2024-03-06T07:41:31;15.40;99.90
18658;DHT22;9458;50.942;5.074;2024-03-06T07:43:58;15.40;99.90
18658;DHT22;9458;50.942;5.074;2024-03-06T07:46:26;15.40;99.90
18658;DHT22;9458;50.942;5.074;2024-03-06T07:48:55;15.90;99.90
18658;DHT22;9458;50.942;5.074;2024-03-06T07:51:23;16.20;99.90
18658;DHT22;9458;50.942;5.074;2024-03-06T07:53:50;16.30;99.90
18658;DHT22;9458;50.942;5.074;2024-03-06T07:56:18;16.80;99.90
18658;DHT22;9458;50.942;5.074;2024-03-06T07:58:45;17.30;99.90
18658;DHT22;9458;50.942;5.074;2024-03-06T08:01:12;17.70;99.90
18658;DHT22;9458;50.942;5.074;2024-03-06T08:03:39;18.10;99.90
18658;DHT22;9458;50.942;5.074;2024-03-06T08:06:10;18.40;99.90
18658;DHT22;9458;50.942;5.074;2024-03-06T08:08:40;18.70;99.90
18658;DHT22;9458;50.942;5.074;2024-03-06T08:11:07;19.00;99.90
18658;DHT22;9458;50.942;5.074;2024-03-06T08:13:36;19.20;99.90
18658;DHT22;9458;50.942;5.074;2024-03-06T08:16:03;19.20;99.90
18658;DHT22;9458;50.942;5.074;2024-03-06T08:18:31;19.40;99.90
18658;DHT22;9458;50.942;5.074;2024-03-06T08:20:59;19.70;99.90
18658;DHT22;9458;50.942;5.074;2024-03-06T08:23:27;19.80;99.90
18658;DHT22;9458;50.942;5.074;2024-03-06T08:25:56;20.40;99.90
18658;DHT22;9458;50.942;5.074;2024-03-06T08:28:23;20.90;99.90
18658;DHT22;9458;50.942;5.074;2024-03-06T08:30:51;20.90;99.90
18658;DHT22;9458;50.942;5.074;2024-03-06T08:33:18;21.40;99.90
18658;DHT22;9458;50.942;5.074;2024-03-06T08:35:46;21.40;99.90
18658;DHT22;9458;50.942;5.074;2024-03-06T08:38:14;21.50;99.90
18658;DHT22;9458;50.942;5.074;2024-03-06T08:40:44;21.50;99.90
18658;DHT22;9458;50.942;5.074;2024-03-06T08:43:12;21.80;99.90
18658;DHT22;9458;50.942;5.074;2024-03-06T08:45:40;22.30;99.90
18658;DHT22;9458;50.942;5.074;2024-03-06T08:48:08;22.50;99.90
18658;DHT22;9458;50.942;5.074;2024-03-06T08:50:35;23.00;99.90
18658;DHT22;9458;50.942;5.074;2024-03-06T08:53:02;23.60;99.90
18658;DHT22;9458;50.942;5.074;2024-03-06T08:55:29;24.90;99.90
18658;DHT22;9458;50.942;5.074;2024-03-06T08:57:57;24.90;99.90
18658;DHT22;9458;50.942;5.074;2024-03-06T09:00:26;24.90;99.90
18658;DHT22;9458;50.942;5.074;2024-03-06T09:02:54;24.50;99.90
